ADDS METAR Data INFO
IDs: Format: Raw Decoded Include TAF

Data at: 2157 UTC 24 Feb 2018

PABI 242153Z 24003KT 10SM BKN055 OVC070 M13/M14 A2950 RMK AO2 SLP038 BINOVC DSNT N T11281144
PABI 242053Z 20004KT 10SM FEW070 BKN110 OVC200 M14/M15 A2950 RMK AO2 SLP038 BINOVC DSNT N I3001 T11391150 51006
PABI 241953Z 00000KT 10SM FEW080 OVC100 M15/M16 A2950 RMK AO2 SLP037 BINOVC DSNT N T11501161
PABI 241853Z 04003KT 10SM FEW065 OVC085 M16/M17 A2949 RMK AO2 SLP033 BINOVC DSNT N I1001 T11611172
PABI 241753Z 03005KT 10SM BKN065 OVC090 M17/M18 A2948 RMK AO2 SLP029 BINOVC DSNT N I6000 T11671178 11156 21200 55006
PABI 241653Z 18006KT 10SM FEW110 SCT140 OVC200 M16/M17 A2948 RMK SLP027 T11611172 VIA AUTODIAL
PABI 241553Z 12005KT 10SM FEW120 BKN150 M16/M17 A2949 RMK AO2 SLP030 T11611172
PABI 241453Z 08004KT 10SM BKN140 M17/M18 A2950 RMK AO2 SLP034 I3000 T11721183 56027
PABI 241353Z AUTO 09009KT 10SM CLR M17/M18 A2952 RMK AO2 SLP038 T11721183 TSNO
PABI 241253Z AUTO 09009KT 10SM CLR M17/M17 A2954 RMK AO2 SLP047 I1000 T11671172 TSNO
PABI 241153Z AUTO 00000KT 10SM CLR M19/M20 A2958 RMK AO2 SLP062 I6000 T11891200 11117 21194 58040 TSNO
PABI 241053Z AUTO 05003KT 10SM CLR M19/M19 A2963 RMK AO2 SLP078 I1000 T11891194 TSNO
PABI 240953Z AUTO 00000KT 10SM CLR M17/M19 A2967 RMK AO2 SLP091 I1000 T11721189 TSNO
PABI 240853Z AUTO 00000KT 10SM CLR M16/M16 A2971 RMK AO2 SLP102 I1000 I3000 T11611161 410611161 56046 TSNO
PABI 240753Z AUTO 11005KT 10SM CLR M15/M16 A2975 RMK AO2 SLP117 T11501156 TSNO
PABI 240653Z AUTO 08007KT 10SM CLR M14/M15 A2979 RMK AO2 SLP131 T11391150 TSNO
PABI 240613Z 11004KT 10SM SCT029 M12/M14 A2983 RMK AO2 T11221144
PABI 240606Z 10003KT 10SM BKN029 M12/M14 A2984 RMK AO2 T11221144
PABI 240553Z 10003KT 10SM BKN030 M12/M14 A2985 RMK AO2 SLP148 T11171144 11072 21128 58049
PABI 240453Z 17004KT 10SM OVC032 M12/M14 A2991 RMK AO2 SLP166 T11171144
PABI 240353Z 13004KT 10SM BKN032 BKN070 M11/M14 A2995 RMK AO2 SLP182 T11061139
PABI 240253Z 36003KT 10SM SCT036 SCT070 SCT090 SCT180 M09/M14 A3000 RMK AO2 SLP195 T10891139 58026
PABI 240153Z 32009KT 10SM SCT034 BKN042 BKN090 BKN180 M08/M13 A3004 RMK AO2 SLP207 T10781133
PABI 240053Z 32009KT 10SM FEW032 SCT044 SCT070 BKN160 M08/M13 A3006 RMK AO2 SLP214 SHSN DSNT NW-NE T10781133
PABI 232353Z 34007KT 10SM FEW028 BKN065 BKN090 BKN160 M07/M11 A3008 RMK AO2 SLP221 SHSN DSNT NW-NE 60000 T10721106 11072 21083 58006
PABI 232253Z 30014KT 10SM FEW025 BKN065 BKN090 M07/M12 A3009 RMK AO2 SLP225 DRSN VC ALQDS SHSN DSNT NW-NE T10721122
PABI 232153Z 31014KT 10SM SCT055 BKN070 BKN090 M08/M12 A3009 RMK AO2 SLP225 BLSN VC ALQDS SHSN DSNT N-NE-SE/NW T10781117
PABI 232053Z 31015KT 10SM SCT030 BKN050 OVC090 M08/M11 A3010 RMK AO2 SLP228 SHSN VC N-NE/NW 60000 T10781106 51013
PABI 231953Z 32013KT 10SM SCT030 BKN050 OVC090 M08/M11 A3010 RMK AO2 SNE27 SLP226 SHSN VC ALQDS P0000 T10831106
PABI 231853Z 31012KT 3SM -SN BR FEW036 OVC050 M08/M10 A3009 RMK AO2 SLP224 P0000 T10831100
PABI 231815Z 31014G19KT 1SM -SN BR OVC025 M08/M10 A3007 RMK AO2 P0000 T10831100
PABI 231806Z 29011KT 3/4SM -SN BR BKN027 OVC049 M08/M09 A3007 RMK AO2 P0000 T10831094
PABI 231759Z 30012KT 1 3/4SM -SN BR BKN033 OVC049 M08/M10 A3007 RMK P0000 T10831100 VIA AUTODIAL
PABI 231748Z 30011KT 3SM -SN BR BKN033 OVC048 M08/M10 A3006 RMK AO2 SLP214 P0000 60000 T10831100 11067 21083 51014
PABI 231747Z 30011KT 3SM -SN BR BKN031 OVC048 M08/M10 A3006 RMK AO2 P0000
PABI 231711Z 30010KT 1 1/2SM -SN BR OVC019 M08/M09 A3005 RMK AO2 P0000 T10781094
PABI 231653Z 30012KT 2SM -SN BR OVC025 M08/M10 A3004 RMK AO2 PK WND 31026/1604 SLP207 P0000 T10781100
PABI 231651Z 30013KT 2 1/2SM -SN BR OVC025 M08/M10 A3004 RMK AO2 PK WND 31026/1604 P0000
PABI 231553Z 30015KT 4SM -SN OVC036 M07/M11 A3002 RMK AO2 SLP196 P0000 T10721106
PABI 231520Z 29017G25KT 3SM -SN OVC037 M07/M10 A3002 RMK AO2 P0000 T10721100
PABI 231510Z 29018G25KT 2 1/2SM -SN OVC030 M07/M10 A3001 RMK AO2 P0000 T10721100
PABI 231501Z 29019G22KT 3SM -SN BKN026 OVC033 M07/M10 A3001 RMK AO2 P0000 T10721100
PABI 231453Z AUTO 29013G21KT 2 1/2SM -SN OVC026 M07/M10 A3001 RMK AO2 SLP194 P0000 60000 T10721100 51012 TSNO
PABI 231353Z AUTO 30012G20KT 4SM -SN BKN050 OVC070 M07/M10 A3000 RMK AO2 UPE1259SNB1259 SLP190 P0000 T10721100 TSNO
PABI 231253Z AUTO 31011KT 7SM UP SCT050 OVC080 M07/M09 A2999 RMK AO2 PK WND 30027/1203 UPB33E36B53SNB36E53 SLP187 P0000 T10721094 TSNO
PABI 231153Z AUTO 31016G25KT 10SM OVC100 M07/M10 A2998 RMK AO2 PK WND 31029/1105 UPE35 SLP182 P0000 60000 70010 T10671100 11044 21067 53007 TSNO
PABI 231053Z AUTO 31019G28KT 9SM UP OVC060 M07/M09 A2997 RMK AO2 PK WND 30029/1026 UPB0955E06B32SNE0955 SLP180 P0000 T10671089 TSNO